Ikarus — SWEW — position and weather

sailwx.info

Track history (hours):
 
Tides and Currents Weather Stations Pressure Air Temp Water Temp Dewpoint Dewpoint Depression Visibility Wind Speed Wind Dir Waves Ship Positions

Ikarus

Last reported at 2015-Mar-27 21:33 UTC. Time now 2015-Mar-27 22:10 UTC.
Position N 43°35' E 010°18'.

Length 200 m; draft 6.7 m.

Type: Ship. MMSI: 239513000.

Date/timePositionNaut miles runAvg speedWind from/ knotsBaromVisibWave heightAir tempDewpointWater temp
2015-Mar-27 21:33N 43°35' E 010°18'0 0.0
2015-Mar-27 20:33N 43°35' E 010°18'0 0.0
2015-Mar-27 19:33N 43°35' E 010°18'0 0.0
2015-Mar-27 18:33N 43°35' E 010°18'0 0.0
2015-Mar-27 17:33N 43°35' E 010°18'0 0.0
2015-Mar-27 16:33N 43°35' E 010°18'0 0.0
2015-Mar-27 15:30N 43°35' E 010°18'0 0.0
2015-Mar-27 14:33N 43°35' E 010°18'0 0.0
2015-Mar-27 13:33N 43°35' E 010°18'0 0.0
2015-Mar-27 12:33N 43°35' E 010°18'0 0.0
2015-Mar-27 11:33N 43°35' E 010°18'0 0.0
2015-Mar-27 10:33N 43°35' E 010°18'0 0.0
2015-Mar-27 09:33N 43°35' E 010°18'0 0.0
2015-Mar-27 08:33N 43°35' E 010°18'0 0.0
2015-Mar-27 07:33N 43°35' E 010°18'0 0.0
2015-Mar-27 06:30N 43°35' E 010°18'0 0.0
2015-Mar-27 05:33N 43°35' E 010°18'0 0.0
2015-Mar-27 04:33N 43°35' E 010°18'0 0.0
2015-Mar-27 03:33N 43°35' E 010°18'0 0.0
2015-Mar-27 02:33N 43°35' E 010°18'0 0.0
2015-Mar-27 01:33N 43°35' E 010°18'0 0.0
2015-Mar-27 00:33N 43°35' E 010°18'0 0.0
2015-Mar-26 23:33N 43°35' E 010°18'0 0.0
2015-Mar-26 22:34N 43°35' E 010°18'2 1.9
2015-Mar-26 21:33N 43°33' E 010°17'1616.0
2015-Mar-26 20:33N 43°30' E 009°56'2322.5
2015-Mar-26 19:33N 43°25' E 009°26'2222.2
2015-Mar-26 18:33N 43°19' E 008°56'6722.3
2015-Mar-26 15:33N 43°01' E 007°28'2322.6
2015-Mar-26 14:33N 42°55' E 006°58'2221.6
2015-Mar-26 13:33N 42°49' E 006°30'2517.5
2015-Mar-26 12:08N 42°54' E 005°57'5019.3
2015-Mar-26 09:32N 42°54' E 004°48'4019.7
2015-Mar-26 07:30N 42°47' E 003°55'1819.6
2015-Mar-26 06:33N 42°40' E 003°31'1717.2
2015-Mar-26 05:33N 42°24' E 003°22'1817.8
2015-Mar-26 04:33N 42°06' E 003°19'1817.8
2015-Mar-26 03:33N 41°49' E 003°13'2119.8
2015-Mar-26 02:29N 41°36' E 002°50'2019.2
2015-Mar-26 01:28N 41°25' E 002°28'1615.1
2015-Mar-26 00:26N 41°17' E 002°10'4 1.0
2015-Mar-25 20:12N 41°22' E 002°11'5 7.6
2015-Mar-25 19:33N 41°17' E 002°11'2020.5
2015-Mar-25 18:33N 41°00' E 001°55'2120.8
2015-Mar-25 17:34N 40°43' E 001°40'2120.6
2015-Mar-25 16:33N 40°26' E 001°24'2019.7
2015-Mar-25 15:33N 40°09' E 001°11'13719.6
2015-Mar-25 08:33N 38°05' W 000°03'2020.0
2015-Mar-25 07:33N 37°49' W 000°18'2020.1
2015-Mar-25 06:33N 37°33' W 000°33'2120.4
2015-Mar-25 05:33N 37°18' W 000°51'2120.6
2015-Mar-25 04:32N 37°05' W 001°11'21912.6
2015-Mar-24 11:08N 35°56' W 005°30'610.9
2015-Mar-24 10:33N 35°60' W 005°24'22314.4
2015-Mar-23 19:04N 37°15' W 001°02'816.1
2015-Mar-23 18:33N 37°21' W 000°54'1716.6
2015-Mar-23 17:33N 37°32' W 000°39'1616.4
2015-Mar-23 16:33N 37°44' W 000°25'1616.1
2015-Mar-23 15:33N 37°58' W 000°14'12615.8
2015-Mar-23 07:33N 39°47' E 001°07'1615.6
2015-Mar-23 06:33N 40°00' E 001°17'1515.4
2015-Mar-23 05:33N 40°14' E 001°26'1615.9
2015-Mar-23 04:33N 40°28' E 001°36'1615.9
2015-Mar-23 03:33N 40°42' E 001°46'1615.9
2015-Mar-23 02:33N 40°56' E 001°56'1616.1
2015-Mar-23 01:33N 41°10' E 002°06'9 1.4
2015-Mar-22 19:22N 41°18' E 002°10'810.2
2015-Mar-22 18:33N 41°19' E 002°21'7819.6
2015-Mar-22 14:33N 41°47' E 003°59'2119.4
2015-Mar-22 13:29N 41°53' E 004°26'2719.3
2015-Mar-22 12:05N 42°02' E 005°00'19419.5
2015-Mar-22 02:09N 43°07' E 009°08'1119.3
2015-Mar-22 01:33N 43°11' E 009°23'1919.4
2015-Mar-22 00:34N 43°18' E 009°48'1919.3
2015-Mar-21 23:34N 43°29' E 010°10'9 8.7
2015-Mar-21 22:33N 43°35' E 010°18'0 0.0
2015-Mar-21 21:33N 43°35' E 010°18'0 0.0
2015-Mar-21 20:33N 43°35' E 010°18'0 0.0
2015-Mar-21 19:33N 43°35' E 010°18'0 0.0
2015-Mar-21 18:33N 43°35' E 010°18'0 0.0
2015-Mar-21 17:33N 43°35' E 010°18'0 0.0
2015-Mar-21 16:33N 43°35' E 010°18'0 0.0
2015-Mar-21 15:33N 43°35' E 010°18'0 0.0
2015-Mar-21 14:33N 43°35' E 010°18'0 0.0
2015-Mar-21 13:30N 43°35' E 010°18'0 0.0
2015-Mar-21 12:33N 43°35' E 010°18'0 0.0
2015-Mar-21 11:33N 43°35' E 010°18'0 0.0
2015-Mar-21 10:33N 43°35' E 010°18'0 0.0
2015-Mar-21 09:33N 43°35' E 010°18'0 0.0
2015-Mar-21 08:33N 43°35' E 010°18'0 0.0
2015-Mar-21 07:33N 43°35' E 010°18'0 0.0
2015-Mar-21 06:33N 43°35' E 010°18'0 0.0
2015-Mar-21 05:33N 43°35' E 010°18'0 0.0
2015-Mar-21 04:33N 43°35' E 010°18'0 0.0
2015-Mar-21 03:33N 43°35' E 010°18'0 0.0
2015-Mar-21 02:33N 43°35' E 010°18'0 0.0
2015-Mar-21 01:33N 43°35' E 010°18'0 0.0
2015-Mar-21 00:33N 43°35' E 010°18'0 0.0
2015-Mar-20 23:33N 43°35' E 010°18'0 0.0
2015-Mar-20 22:33N 43°35' E 010°18'0 0.0
2015-Mar-20 21:33N 43°35' E 010°18'0 0.0
2015-Mar-20 20:33N 43°35' E 010°18'0 0.0
2015-Mar-20 19:33N 43°35' E 010°18'0 0.0
2015-Mar-20 18:33N 43°35' E 010°18'0 0.0
2015-Mar-20 17:33N 43°35' E 010°18'0 0.0
2015-Mar-20 16:33N 43°35' E 010°18'0 0.0
2015-Mar-20 15:33N 43°35' E 010°18'0 0.0
2015-Mar-20 14:33N 43°35' E 010°18'0 0.0
2015-Mar-20 13:33N 43°35' E 010°18'0 0.0
2015-Mar-20 12:33N 43°35' E 010°18'0 0.0
2015-Mar-20 11:33N 43°35' E 010°18'0 0.0
2015-Mar-20 10:33N 43°35' E 010°18'0 0.0
2015-Mar-20 09:33N 43°35' E 010°18'0 0.0
2015-Mar-20 08:33N 43°35' E 010°18'0 0.0
2015-Mar-20 07:33N 43°35' E 010°18'0 0.0
2015-Mar-20 06:30N 43°35' E 010°18'0 0.0
2015-Mar-20 05:30N 43°35' E 010°18'0 0.0
2015-Mar-20 04:30N 43°35' E 010°18'0 0.0
2015-Mar-20 03:33N 43°35' E 010°18'0 0.0
2015-Mar-20 02:33N 43°35' E 010°18'0 0.0
2015-Mar-20 01:27N 43°35' E 010°18'0 0.0
2015-Mar-20 00:33N 43°35' E 010°18'0 0.0
2015-Mar-19 23:33N 43°35' E 010°18'0 0.0
2015-Mar-19 22:33N 43°35' E 010°18'1 0.6
2015-Mar-19 21:34N 43°34' E 010°19'1211.8
2015-Mar-19 20:33N 43°26' E 010°07'2120.7
2015-Mar-19 19:33N 43°16' E 009°42'2120.7
2015-Mar-19 18:33N 43°09' E 009°15'2020.4
2015-Mar-19 17:33N 43°02' E 008°49'2020.1
2015-Mar-19 16:33N 42°55' E 008°23'2020.2
2015-Mar-19 15:33N 42°49' E 007°57'2020.5
2015-Mar-19 14:33N 42°42' E 007°31'2020.4
2015-Mar-19 13:33N 42°35' E 007°05'2220.3
2015-Mar-19 12:27N 42°27' E 006°36'2122.4
2015-Mar-19 11:30N 42°20' E 006°09'1818.2
2015-Mar-19 10:30N 42°14' E 005°46'2420.3
2015-Mar-19 09:21N 42°06' E 005°16'1620.8
2015-Mar-19 08:33N 42°00' E 004°55'2120.3
2015-Mar-19 07:32N 41°54' E 004°29'2420.2
2015-Mar-19 06:20N 41°45' E 003°58'7319.3
2015-Mar-19 02:33N 41°21' E 002°27'1212.2
2015-Mar-19 01:32N 41°21' E 002°10'1 0.4
2015-Mar-18 22:31N 41°22' E 002°11'0 0.0
2015-Mar-18 21:33N 41°22' E 002°11'9 9.0
2015-Mar-18 20:33N 41°13' E 002°09'1919.3
2015-Mar-18 19:33N 40°56' E 001°57'2019.7
2015-Mar-18 18:33N 40°38' E 001°45'2019.8
2015-Mar-18 17:33N 40°21' E 001°33'1919.2
2015-Mar-18 16:33N 40°04' E 001°22'2019.6
2015-Mar-18 15:33N 39°46' E 001°10'11819.0
2015-Mar-18 09:20N 38°07' W 000°13'1418.3
2015-Mar-18 08:33N 37°55' W 000°22'1818.5
2015-Mar-18 07:33N 37°37' W 000°28'1918.6
2015-Mar-18 06:33N 37°23' W 000°44'1918.9
2015-Mar-18 05:33N 37°11' W 001°02'  
Track history (hours):
 
Tides and Currents Weather Stations Pressure Air Temp Water Temp Dewpoint Dewpoint Depression Visibility Wind Speed Wind Dir Waves Ship Positions

Ikarus

Last reported at 2015-Mar-27 21:33 UTC. Time now 2015-Mar-27 22:10 UTC.
Position N 43°35' E 010°18'.

Length 200 m; draft 6.7 m.

Type: Ship. MMSI: 239513000.

Date/timePositionNaut miles runAvg speedWind from/ knotsBaromVisibWave heightAir tempDewpointWater temp
2015-Mar-27 21:33N 43°35' E 010°18'0 0.0
2015-Mar-27 20:33N 43°35' E 010°18'0 0.0
2015-Mar-27 19:33N 43°35' E 010°18'0 0.0
2015-Mar-27 18:33N 43°35' E 010°18'0 0.0
2015-Mar-27 17:33N 43°35' E 010°18'0 0.0
2015-Mar-27 16:33N 43°35' E 010°18'0 0.0
2015-Mar-27 15:30N 43°35' E 010°18'0 0.0
2015-Mar-27 14:33N 43°35' E 010°18'0 0.0
2015-Mar-27 13:33N 43°35' E 010°18'0 0.0
2015-Mar-27 12:33N 43°35' E 010°18'0 0.0
2015-Mar-27 11:33N 43°35' E 010°18'0 0.0
2015-Mar-27 10:33N 43°35' E 010°18'0 0.0
2015-Mar-27 09:33N 43°35' E 010°18'0 0.0
2015-Mar-27 08:33N 43°35' E 010°18'0 0.0
2015-Mar-27 07:33N 43°35' E 010°18'0 0.0
2015-Mar-27 06:30N 43°35' E 010°18'0 0.0
2015-Mar-27 05:33N 43°35' E 010°18'0 0.0
2015-Mar-27 04:33N 43°35' E 010°18'0 0.0
2015-Mar-27 03:33N 43°35' E 010°18'0 0.0
2015-Mar-27 02:33N 43°35' E 010°18'0 0.0
2015-Mar-27 01:33N 43°35' E 010°18'0 0.0
2015-Mar-27 00:33N 43°35' E 010°18'0 0.0
2015-Mar-26 23:33N 43°35' E 010°18'0 0.0
2015-Mar-26 22:34N 43°35' E 010°18'2 1.9
2015-Mar-26 21:33N 43°33' E 010°17'1616.0
2015-Mar-26 20:33N 43°30' E 009°56'2322.5
2015-Mar-26 19:33N 43°25' E 009°26'2222.2
2015-Mar-26 18:33N 43°19' E 008°56'6722.3
2015-Mar-26 15:33N 43°01' E 007°28'2322.6
2015-Mar-26 14:33N 42°55' E 006°58'2221.6
2015-Mar-26 13:33N 42°49' E 006°30'2517.5
2015-Mar-26 12:08N 42°54' E 005°57'5019.3
2015-Mar-26 09:32N 42°54' E 004°48'4019.7
2015-Mar-26 07:30N 42°47' E 003°55'1819.6
2015-Mar-26 06:33N 42°40' E 003°31'1717.2
2015-Mar-26 05:33N 42°24' E 003°22'1817.8
2015-Mar-26 04:33N 42°06' E 003°19'1817.8
2015-Mar-26 03:33N 41°49' E 003°13'2119.8
2015-Mar-26 02:29N 41°36' E 002°50'2019.2
2015-Mar-26 01:28N 41°25' E 002°28'1615.1
2015-Mar-26 00:26N 41°17' E 002°10'4 1.0
2015-Mar-25 20:12N 41°22' E 002°11'5 7.6
2015-Mar-25 19:33N 41°17' E 002°11'2020.5
2015-Mar-25 18:33N 41°00' E 001°55'2120.8
2015-Mar-25 17:34N 40°43' E 001°40'2120.6
2015-Mar-25 16:33N 40°26' E 001°24'2019.7
2015-Mar-25 15:33N 40°09' E 001°11'13719.6
2015-Mar-25 08:33N 38°05' W 000°03'2020.0
2015-Mar-25 07:33N 37°49' W 000°18'2020.1
2015-Mar-25 06:33N 37°33' W 000°33'2120.4
2015-Mar-25 05:33N 37°18' W 000°51'2120.6
2015-Mar-25 04:32N 37°05' W 001°11'21912.6
2015-Mar-24 11:08N 35°56' W 005°30'610.9
2015-Mar-24 10:33N 35°60' W 005°24'22314.4
2015-Mar-23 19:04N 37°15' W 001°02'816.1
2015-Mar-23 18:33N 37°21' W 000°54'1716.6
2015-Mar-23 17:33N 37°32' W 000°39'1616.4
2015-Mar-23 16:33N 37°44' W 000°25'1616.1
2015-Mar-23 15:33N 37°58' W 000°14'12615.8
2015-Mar-23 07:33N 39°47' E 001°07'1615.6
2015-Mar-23 06:33N 40°00' E 001°17'1515.4
2015-Mar-23 05:33N 40°14' E 001°26'1615.9
2015-Mar-23 04:33N 40°28' E 001°36'1615.9
2015-Mar-23 03:33N 40°42' E 001°46'1615.9
2015-Mar-23 02:33N 40°56' E 001°56'1616.1
2015-Mar-23 01:33N 41°10' E 002°06'9 1.4
2015-Mar-22 19:22N 41°18' E 002°10'810.2
2015-Mar-22 18:33N 41°19' E 002°21'7819.6
2015-Mar-22 14:33N 41°47' E 003°59'2119.4
2015-Mar-22 13:29N 41°53' E 004°26'2719.3
2015-Mar-22 12:05N 42°02' E 005°00'19419.5
2015-Mar-22 02:09N 43°07' E 009°08'1119.3
2015-Mar-22 01:33N 43°11' E 009°23'1919.4
2015-Mar-22 00:34N 43°18' E 009°48'1919.3
2015-Mar-21 23:34N 43°29' E 010°10'9 8.7
2015-Mar-21 22:33N 43°35' E 010°18'0 0.0
2015-Mar-21 21:33N 43°35' E 010°18'0 0.0
2015-Mar-21 20:33N 43°35' E 010°18'0 0.0
2015-Mar-21 19:33N 43°35' E 010°18'0 0.0
2015-Mar-21 18:33N 43°35' E 010°18'0 0.0
2015-Mar-21 17:33N 43°35' E 010°18'0 0.0
2015-Mar-21 16:33N 43°35' E 010°18'0 0.0
2015-Mar-21 15:33N 43°35' E 010°18'0 0.0
2015-Mar-21 14:33N 43°35' E 010°18'0 0.0
2015-Mar-21 13:30N 43°35' E 010°18'0 0.0
2015-Mar-21 12:33N 43°35' E 010°18'0 0.0
2015-Mar-21 11:33N 43°35' E 010°18'0 0.0
2015-Mar-21 10:33N 43°35' E 010°18'0 0.0
2015-Mar-21 09:33N 43°35' E 010°18'0 0.0
2015-Mar-21 08:33N 43°35' E 010°18'0 0.0
2015-Mar-21 07:33N 43°35' E 010°18'0 0.0
2015-Mar-21 06:33N 43°35' E 010°18'0 0.0
2015-Mar-21 05:33N 43°35' E 010°18'0 0.0
2015-Mar-21 04:33N 43°35' E 010°18'0 0.0
2015-Mar-21 03:33N 43°35' E 010°18'0 0.0
2015-Mar-21 02:33N 43°35' E 010°18'0 0.0
2015-Mar-21 01:33N 43°35' E 010°18'0 0.0
2015-Mar-21 00:33N 43°35' E 010°18'0 0.0
2015-Mar-20 23:33N 43°35' E 010°18'0 0.0
2015-Mar-20 22:33N 43°35' E 010°18'0 0.0
2015-Mar-20 21:33N 43°35' E 010°18'0 0.0
2015-Mar-20 20:33N 43°35' E 010°18'0 0.0
2015-Mar-20 19:33N 43°35' E 010°18'0 0.0
2015-Mar-20 18:33N 43°35' E 010°18'0 0.0
2015-Mar-20 17:33N 43°35' E 010°18'0 0.0
2015-Mar-20 16:33N 43°35' E 010°18'0 0.0
2015-Mar-20 15:33N 43°35' E 010°18'0 0.0
2015-Mar-20 14:33N 43°35' E 010°18'0 0.0
2015-Mar-20 13:33N 43°35' E 010°18'0 0.0
2015-Mar-20 12:33N 43°35' E 010°18'0 0.0
2015-Mar-20 11:33N 43°35' E 010°18'0 0.0
2015-Mar-20 10:33N 43°35' E 010°18'0 0.0
2015-Mar-20 09:33N 43°35' E 010°18'0 0.0
2015-Mar-20 08:33N 43°35' E 010°18'0 0.0
2015-Mar-20 07:33N 43°35' E 010°18'0 0.0
2015-Mar-20 06:30N 43°35' E 010°18'0 0.0
2015-Mar-20 05:30N 43°35' E 010°18'0 0.0
2015-Mar-20 04:30N 43°35' E 010°18'0 0.0
2015-Mar-20 03:33N 43°35' E 010°18'0 0.0
2015-Mar-20 02:33N 43°35' E 010°18'0 0.0
2015-Mar-20 01:27N 43°35' E 010°18'0 0.0
2015-Mar-20 00:33N 43°35' E 010°18'0 0.0
2015-Mar-19 23:33N 43°35' E 010°18'0 0.0
2015-Mar-19 22:33N 43°35' E 010°18'1 0.6
2015-Mar-19 21:34N 43°34' E 010°19'1211.8
2015-Mar-19 20:33N 43°26' E 010°07'2120.7
2015-Mar-19 19:33N 43°16' E 009°42'2120.7
2015-Mar-19 18:33N 43°09' E 009°15'2020.4
2015-Mar-19 17:33N 43°02' E 008°49'2020.1
2015-Mar-19 16:33N 42°55' E 008°23'2020.2
2015-Mar-19 15:33N 42°49' E 007°57'2020.5
2015-Mar-19 14:33N 42°42' E 007°31'2020.4
2015-Mar-19 13:33N 42°35' E 007°05'2220.3
2015-Mar-19 12:27N 42°27' E 006°36'2122.4
2015-Mar-19 11:30N 42°20' E 006°09'1818.2
2015-Mar-19 10:30N 42°14' E 005°46'2420.3
2015-Mar-19 09:21N 42°06' E 005°16'1620.8
2015-Mar-19 08:33N 42°00' E 004°55'2120.3
2015-Mar-19 07:32N 41°54' E 004°29'2420.2
2015-Mar-19 06:20N 41°45' E 003°58'7319.3
2015-Mar-19 02:33N 41°21' E 002°27'1212.2
2015-Mar-19 01:32N 41°21' E 002°10'1 0.4
2015-Mar-18 22:31N 41°22' E 002°11'0 0.0
2015-Mar-18 21:33N 41°22' E 002°11'9 9.0
2015-Mar-18 20:33N 41°13' E 002°09'1919.3
2015-Mar-18 19:33N 40°56' E 001°57'2019.7
2015-Mar-18 18:33N 40°38' E 001°45'2019.8
2015-Mar-18 17:33N 40°21' E 001°33'1919.2
2015-Mar-18 16:33N 40°04' E 001°22'2019.6
2015-Mar-18 15:33N 39°46' E 001°10'11819.0
2015-Mar-18 09:20N 38°07' W 000°13'1418.3
2015-Mar-18 08:33N 37°55' W 000°22'1818.5
2015-Mar-18 07:33N 37°37' W 000°28'1918.6
2015-Mar-18 06:33N 37°23' W 000°44'1918.9
2015-Mar-18 05:33N 37°11' W 001°02'  

Dump ship's entire track history